createdAt,value
2022-09-13T00:01:07.942Z,8.30
2022-09-13T00:03:36.540Z,7.78
2022-09-13T00:06:13.034Z,7.70
2022-09-13T00:08:42.880Z,7.72
2022-09-13T00:11:18.355Z,7.25
2022-09-13T00:13:46.624Z,6.18
2022-09-13T00:16:19.875Z,7.78
2022-09-13T00:18:48.731Z,7.20
2022-09-13T00:21:22.358Z,6.93
2022-09-13T00:23:52.047Z,7.05
2022-09-13T00:26:23.329Z,6.85
2022-09-13T00:28:52.637Z,7.28
2022-09-13T00:31:23.361Z,6.53
2022-09-13T00:52:16.169Z,7.00
2022-09-13T00:54:50.327Z,7.10
2022-09-13T00:57:19.833Z,7.90
2022-09-13T00:59:53.921Z,7.55
2022-09-13T01:02:23.085Z,7.95
2022-09-13T01:10:40.387Z,6.93
2022-09-13T01:13:15.193Z,7.28
2022-09-13T01:15:46.366Z,6.32
2022-09-13T01:18:15.277Z,7.13
2022-09-13T01:20:59.208Z,6.22
2022-09-13T01:23:52.075Z,6.45
2022-09-13T01:26:59.307Z,7.00
2022-09-13T01:30:00.540Z,6.95
2022-09-13T01:32:41.353Z,7.65
2022-09-13T01:35:18.559Z,7.38
2022-09-13T01:37:55.273Z,7.07
2022-09-13T01:40:41.995Z,7.05
2022-09-13T01:43:27.092Z,6.60
2022-09-13T01:46:03.979Z,7.20
2022-09-13T02:12:08.113Z,7.03
2022-09-13T02:14:39.803Z,7.18
2022-09-13T02:17:11.516Z,7.00
2022-09-13T02:19:44.376Z,6.93
2022-09-13T02:22:17.299Z,7.07
2022-09-13T02:24:49.301Z,8.10
2022-09-13T02:30:16.302Z,7.20
2022-09-13T02:32:49.555Z,8.55
2022-09-13T02:35:21.161Z,8.75
2022-09-13T02:37:56.389Z,8.18
2022-09-13T02:40:29.009Z,8.77
2022-09-13T02:43:02.669Z,8.90
2022-09-13T03:00:12.861Z,8.07
2022-09-13T03:02:44.749Z,8.40
2022-09-13T03:05:13.084Z,9.30
2022-09-13T03:07:41.016Z,9.30
2022-09-13T03:10:12.650Z,9.98
2022-09-13T03:12:56.557Z,8.65
2022-09-13T03:18:12.425Z,8.80
2022-09-13T03:20:47.818Z,8.80
2022-09-13T03:23:36.500Z,9.23
2022-09-13T03:26:25.043Z,9.25
2022-09-13T03:29:03.984Z,9.02
2022-09-13T03:31:38.214Z,8.48
2022-09-13T03:34:12.288Z,8.02
2022-09-13T03:36:46.796Z,8.98
2022-09-13T03:39:21.921Z,8.88
2022-09-13T03:41:55.700Z,8.95
2022-09-13T03:44:27.602Z,9.32
2022-09-13T03:47:02.669Z,8.48
2022-09-13T03:49:32.728Z,9.05
2022-09-13T03:52:01.191Z,9.98
2022-09-13T03:54:32.279Z,9.27
2022-09-13T03:57:11.713Z,10.20
2022-09-13T03:59:42.851Z,9.57
2022-09-13T04:02:12.875Z,9.73
2022-09-13T04:04:42.620Z,9.30
2022-09-13T04:07:12.735Z,9.52
2022-09-13T04:09:40.651Z,10.40
2022-09-13T04:12:10.117Z,10.85
2022-09-13T04:14:38.334Z,11.73
2022-09-13T04:17:06.884Z,10.98
2022-09-13T04:19:36.263Z,10.57
2022-09-13T04:22:04.354Z,9.85
2022-09-13T04:24:32.668Z,10.30
2022-09-13T04:27:01.133Z,10.70
2022-09-13T04:29:28.892Z,11.10
2022-09-13T04:31:57.024Z,10.90
2022-09-13T04:34:24.912Z,11.80
2022-09-13T04:36:54.750Z,9.57
2022-09-13T04:39:23.921Z,9.95
2022-09-13T04:41:54.867Z,10.30
2022-09-13T04:44:24.339Z,10.20
2022-09-13T04:46:53.700Z,11.00
2022-09-13T04:49:22.083Z,10.73
2022-09-13T04:51:50.259Z,10.23
2022-09-13T04:54:19.598Z,11.23
2022-09-13T04:56:49.163Z,10.82
2022-09-13T04:59:19.981Z,11.15
2022-09-13T05:01:48.135Z,9.52
2022-09-13T05:04:16.938Z,9.82
2022-09-13T05:06:44.767Z,9.95
2022-09-13T05:09:15.424Z,9.70
2022-09-13T05:11:44.782Z,8.93
2022-09-13T05:14:13.340Z,9.93
2022-09-13T05:16:41.472Z,9.13
2022-09-13T05:19:12.056Z,9.07
2022-09-13T05:21:40.117Z,8.63
2022-09-13T05:24:08.181Z,9.45
2022-09-13T05:26:36.634Z,9.20
2022-09-13T05:29:06.669Z,9.20
2022-09-13T05:31:36.612Z,9.45
2022-09-13T05:34:07.495Z,8.00
2022-09-13T05:36:35.456Z,7.72
2022-09-13T05:41:51.682Z,8.45
2022-09-13T05:44:21.118Z,7.70
2022-09-13T05:46:49.269Z,7.40
2022-09-13T05:49:17.342Z,8.00
2022-09-13T05:51:45.378Z,7.88
2022-09-13T05:54:14.054Z,8.88
2022-09-13T05:56:42.101Z,7.47
2022-09-13T05:59:13.681Z,9.90
2022-09-13T06:01:43.125Z,9.90
2022-09-13T06:04:12.676Z,9.52
2022-09-13T06:06:40.834Z,9.10
2022-09-13T06:09:09.357Z,10.20
2022-09-13T06:11:37.380Z,10.20
2022-09-13T06:14:05.169Z,10.02
2022-09-13T06:16:33.246Z,10.05
2022-09-13T06:19:02.710Z,9.85
2022-09-13T06:21:30.629Z,10.20
2022-09-13T06:23:58.626Z,9.90
2022-09-13T06:26:28.312Z,10.30
2022-09-13T06:28:58.862Z,10.75
2022-09-13T06:31:28.780Z,10.45
2022-09-13T06:33:58.728Z,11.18
2022-09-13T06:36:28.711Z,10.73
2022-09-13T06:38:57.092Z,11.30
2022-09-13T06:41:27.193Z,11.70
2022-09-13T06:43:57.639Z,10.23
2022-09-13T06:46:26.874Z,10.60
2022-09-13T06:48:55.629Z,12.57
2022-09-13T06:51:25.138Z,11.65
2022-09-13T06:53:56.804Z,11.68
2022-09-13T06:56:26.582Z,11.07
2022-09-13T06:58:57.993Z,12.23
2022-09-13T07:01:28.321Z,11.60
2022-09-13T07:04:00.043Z,11.90
2022-09-13T07:06:29.412Z,12.23
2022-09-13T07:09:00.461Z,12.25
2022-09-13T07:11:31.351Z,12.55
2022-09-13T07:14:01.090Z,12.30
2022-09-13T07:16:31.197Z,11.32
2022-09-13T07:19:00.737Z,12.38
2022-09-13T07:21:30.046Z,11.82
2022-09-13T07:23:59.870Z,12.23
2022-09-13T07:26:28.831Z,12.50
2022-09-13T07:29:00.234Z,12.23
2022-09-13T07:31:30.307Z,12.45
2022-09-13T07:34:00.432Z,12.30
2022-09-13T07:36:30.420Z,12.52
2022-09-13T07:39:00.630Z,12.60
2022-09-13T07:41:30.295Z,12.95
2022-09-13T07:43:58.997Z,13.25
2022-09-13T07:46:28.770Z,13.55
2022-09-13T07:48:58.244Z,12.95
2022-09-13T07:51:27.794Z,12.18
2022-09-13T07:53:57.863Z,13.43
2022-09-13T07:56:28.615Z,13.82
2022-09-13T07:58:57.464Z,11.38
2022-09-13T08:01:27.446Z,12.77
2022-09-13T08:03:56.792Z,12.63
2022-09-13T08:06:25.850Z,12.02
2022-09-13T08:08:54.079Z,11.38
2022-09-13T08:11:24.427Z,11.27
2022-09-13T08:13:54.641Z,11.90
2022-09-13T08:16:24.579Z,10.70
2022-09-13T08:18:54.635Z,12.05
2022-09-13T08:21:23.675Z,10.95
2022-09-13T08:23:55.547Z,11.07
2022-09-13T08:26:23.819Z,9.68
2022-09-13T08:28:57.587Z,9.25
2022-09-13T08:31:25.670Z,8.52
2022-09-13T08:33:54.550Z,8.70
2022-09-13T08:36:24.168Z,7.97
2022-09-13T08:38:54.116Z,10.70
2022-09-13T08:41:48.344Z,8.95
2022-09-13T08:44:26.594Z,8.68
2022-09-13T08:46:58.480Z,9.85
2022-09-13T08:49:31.388Z,10.75
2022-09-13T08:52:03.225Z,10.88
2022-09-13T08:54:31.082Z,9.77
2022-09-13T08:57:05.096Z,10.27
2022-09-13T08:59:47.723Z,10.52
2022-09-13T09:02:29.703Z,10.05
2022-09-13T09:05:05.351Z,10.30
2022-09-13T09:07:38.324Z,10.23
2022-09-13T09:10:09.127Z,10.70
2022-09-13T09:12:40.601Z,11.10
2022-09-13T09:15:17.571Z,11.07
2022-09-13T09:17:55.398Z,11.65
2022-09-13T09:20:28.886Z,12.07
2022-09-13T09:25:26.767Z,11.13
2022-09-13T09:27:54.968Z,11.77
2022-09-13T09:30:24.262Z,11.52
2022-09-13T09:33:08.506Z,11.73
2022-09-13T09:35:47.637Z,11.48
2022-09-13T09:38:32.591Z,11.73
2022-09-13T09:41:03.974Z,10.88
2022-09-13T09:43:37.714Z,11.02
2022-09-13T09:46:10.428Z,11.40
2022-09-13T09:48:45.792Z,10.87
2022-09-13T09:51:16.249Z,11.50
2022-09-13T09:53:48.265Z,11.25
2022-09-13T09:56:24.540Z,11.23
2022-09-13T09:58:54.354Z,11.90
2022-09-13T10:01:26.666Z,11.73
2022-09-13T10:04:06.080Z,11.25
2022-09-13T10:06:34.426Z,12.18
2022-09-13T10:09:06.115Z,13.55
2022-09-13T10:11:46.013Z,11.98
2022-09-13T10:14:38.228Z,12.23
2022-09-13T10:17:17.216Z,13.07
2022-09-13T10:19:59.361Z,12.48
2022-09-13T10:22:28.292Z,13.30
2022-09-13T10:24:56.971Z,13.32
2022-09-13T10:27:31.127Z,13.82
2022-09-13T10:30:01.794Z,13.95
2022-09-13T10:32:32.261Z,12.60
2022-09-13T10:35:08.914Z,13.15
2022-09-13T10:37:37.744Z,13.50
2022-09-13T10:40:09.556Z,14.30
2022-09-13T10:42:37.694Z,14.20
2022-09-13T10:45:07.756Z,14.30
2022-09-13T10:47:40.563Z,12.30
2022-09-13T10:50:23.512Z,13.80
2022-09-13T10:52:52.762Z,13.75
2022-09-13T10:55:39.078Z,13.85
2022-09-13T10:58:23.856Z,14.00
2022-09-13T11:01:40.148Z,14.00
2022-09-13T11:04:45.939Z,13.63
2022-09-13T11:07:37.919Z,13.38
2022-09-13T11:10:16.240Z,13.60
2022-09-13T11:12:51.308Z,12.20
2022-09-13T11:15:30.435Z,13.50
2022-09-13T11:18:30.845Z,13.32
2022-09-13T11:21:08.781Z,12.65
2022-09-13T11:24:19.171Z,13.18
2022-09-13T11:26:56.467Z,12.15
2022-09-13T11:29:48.031Z,12.80
2022-09-13T11:32:32.560Z,12.32
2022-09-13T11:35:17.471Z,13.32
2022-09-13T11:37:55.987Z,11.40
2022-09-13T11:40:40.672Z,12.77
2022-09-13T11:43:28.137Z,12.68
2022-09-13T11:46:04.596Z,11.65
2022-09-13T11:48:49.207Z,12.15
2022-09-13T11:51:26.509Z,12.07
2022-09-13T11:54:08.792Z,11.77
2022-09-13T11:56:41.825Z,13.35
2022-09-13T11:59:19.798Z,12.95
2022-09-13T12:01:53.182Z,13.27
2022-09-13T12:04:28.525Z,11.93
2022-09-13T12:07:02.154Z,12.75
2022-09-13T12:09:36.312Z,12.40
2022-09-13T12:12:08.377Z,12.75
2022-09-13T12:14:47.214Z,12.93
2022-09-13T12:17:27.445Z,12.77
2022-09-13T12:19:59.198Z,12.55
2022-09-13T12:22:31.376Z,12.77
2022-09-13T12:25:03.587Z,12.65
2022-09-13T12:27:40.605Z,12.02
2022-09-13T12:30:16.047Z,12.60
2022-09-13T12:32:45.054Z,12.52
2022-09-13T12:35:22.117Z,13.07
2022-09-13T12:38:17.124Z,13.35
2022-09-13T12:40:59.161Z,13.52
2022-09-13T12:43:51.820Z,13.88
2022-09-13T12:46:37.944Z,13.23
2022-09-13T12:49:25.826Z,12.98
2022-09-13T12:52:07.892Z,13.63
2022-09-13T12:54:50.069Z,12.98
2022-09-13T12:57:31.857Z,13.20
2022-09-13T13:00:19.458Z,13.52
2022-09-13T13:03:00.464Z,12.20
2022-09-13T13:05:31.951Z,12.93
2022-09-13T13:08:02.460Z,13.68
2022-09-13T13:10:33.441Z,13.23
2022-09-13T13:13:12.906Z,12.73
2022-09-13T13:16:26.496Z,12.82
2022-09-13T13:18:56.394Z,10.93
2022-09-13T13:21:37.152Z,11.95
2022-09-13T13:24:39.848Z,11.75
2022-09-13T13:27:37.458Z,13.27
2022-09-13T13:30:42.815Z,13.13
2022-09-13T13:33:21.706Z,12.55
2022-09-13T13:35:50.342Z,11.63
2022-09-13T13:38:38.628Z,12.23
2022-09-13T13:41:12.825Z,12.57
2022-09-13T13:43:41.397Z,14.13
2022-09-13T13:46:26.717Z,12.77
2022-09-13T13:48:56.950Z,13.00
2022-09-13T13:51:27.535Z,11.43
2022-09-13T13:54:03.492Z,11.68
2022-09-13T13:56:47.948Z,11.93
2022-09-13T13:59:27.282Z,13.15
2022-09-13T14:02:02.008Z,13.07
2022-09-13T14:05:08.886Z,12.73
2022-09-13T14:13:36.375Z,11.35
2022-09-13T14:16:11.339Z,12.75
2022-09-13T14:18:53.709Z,12.38
2022-09-13T14:21:26.674Z,11.55
2022-09-13T14:24:18.021Z,12.15
2022-09-13T14:26:46.975Z,11.68
2022-09-13T14:29:19.498Z,11.95
2022-09-13T14:31:48.848Z,12.27
2022-09-13T14:34:25.672Z,13.18
2022-09-13T14:36:58.175Z,12.85
2022-09-13T14:39:27.649Z,12.70
2022-09-13T14:42:03.169Z,13.00
2022-09-13T14:44:31.637Z,12.85
2022-09-13T14:47:07.993Z,11.85
2022-09-13T14:49:41.202Z,11.82
2022-09-13T14:52:18.681Z,13.98
2022-09-13T14:54:52.829Z,14.80
2022-09-13T14:57:28.751Z,14.68
2022-09-13T14:59:59.866Z,14.15
2022-09-13T15:02:33.357Z,13.23
2022-09-13T15:05:02.346Z,13.68
2022-09-13T15:08:13.815Z,15.80
2022-09-13T15:10:45.839Z,13.85
2022-09-13T15:13:13.646Z,12.75
2022-09-13T15:15:43.096Z,12.98
2022-09-13T15:18:26.078Z,13.60
2022-09-13T15:20:56.141Z,12.65
2022-09-13T15:23:28.130Z,13.25
2022-09-13T15:26:02.556Z,13.25
2022-09-13T15:28:33.910Z,12.93
2022-09-13T15:31:02.882Z,12.95
2022-09-13T15:33:32.763Z,11.38
2022-09-13T15:36:29.960Z,12.18
2022-09-13T15:39:03.238Z,11.68
2022-09-13T15:44:03.547Z,13.40
2022-09-13T15:46:32.634Z,13.20
2022-09-13T15:49:05.320Z,12.90
2022-09-13T15:51:39.006Z,13.35
2022-09-13T15:54:13.957Z,13.00
2022-09-13T15:56:46.718Z,12.23
2022-09-13T15:59:15.558Z,12.18
2022-09-13T16:01:43.898Z,11.90
2022-09-13T16:04:11.834Z,11.23
2022-09-13T16:06:40.446Z,11.07
2022-09-13T16:09:17.138Z,11.27
2022-09-13T16:11:46.989Z,11.20
2022-09-13T16:14:15.050Z,11.45
2022-09-13T16:16:43.046Z,12.07
2022-09-13T16:19:16.093Z,12.27
2022-09-13T16:21:44.120Z,13.60
2022-09-13T16:24:12.118Z,12.20
2022-09-13T16:26:41.348Z,11.68
2022-09-13T16:29:11.551Z,11.50
2022-09-13T16:31:39.389Z,12.55
2022-09-13T16:34:07.363Z,10.45
2022-09-13T16:36:35.268Z,10.60
2022-09-13T16:39:03.374Z,10.95
2022-09-13T16:41:31.650Z,10.95
2022-09-13T16:44:00.018Z,10.30
2022-09-13T16:46:30.836Z,10.10
2022-09-13T16:48:59.258Z,11.20
2022-09-13T16:51:28.037Z,10.45
2022-09-13T16:53:56.216Z,10.15
2022-09-13T16:56:25.720Z,10.55
2022-09-13T16:58:54.705Z,10.85
2022-09-13T17:01:24.729Z,11.15
2022-09-13T17:03:55.198Z,12.35
2022-09-13T17:06:24.871Z,12.10
2022-09-13T17:08:55.457Z,12.40
2022-09-13T17:11:26.726Z,12.40
2022-09-13T17:13:55.126Z,12.68
2022-09-13T17:16:27.398Z,11.82
2022-09-13T17:18:58.314Z,10.73
2022-09-13T17:21:26.905Z,10.85
2022-09-13T17:23:55.671Z,11.35
2022-09-13T17:26:24.122Z,12.07
2022-09-13T17:28:53.381Z,13.27
2022-09-13T17:31:21.975Z,11.77
2022-09-13T17:33:50.382Z,11.68
2022-09-13T17:36:21.019Z,11.80
2022-09-13T17:38:49.366Z,12.40
2022-09-13T17:41:19.232Z,12.32
2022-09-13T17:43:48.027Z,12.93
2022-09-13T17:46:17.848Z,13.07
2022-09-13T17:48:46.954Z,12.80
2022-09-13T17:51:17.545Z,12.80
2022-09-13T17:53:49.674Z,12.68
2022-09-13T17:56:19.699Z,12.40
2022-09-13T17:58:48.146Z,12.75
2022-09-13T18:01:18.107Z,13.32
2022-09-13T18:03:46.491Z,14.07
2022-09-13T18:06:15.176Z,13.50
2022-09-13T18:08:43.519Z,13.95
2022-09-13T18:11:19.456Z,13.57
2022-09-13T18:13:50.040Z,13.70
2022-09-13T18:16:21.421Z,12.77
2022-09-13T18:18:51.551Z,13.02
2022-09-13T18:21:24.394Z,12.70
2022-09-13T18:23:54.882Z,12.65
2022-09-13T18:26:25.886Z,12.95
2022-09-13T18:28:56.016Z,12.43
2022-09-13T18:31:25.139Z,14.20
2022-09-13T18:33:56.854Z,13.60
2022-09-13T18:36:26.036Z,14.48
2022-09-13T18:38:55.589Z,14.40
2022-09-13T18:41:30.792Z,14.93
2022-09-13T18:43:59.880Z,15.32
2022-09-13T18:46:31.844Z,15.32
2022-09-13T18:49:03.655Z,15.25
2022-09-13T18:51:35.078Z,14.35
2022-09-13T18:54:04.609Z,14.65
2022-09-13T18:56:38.063Z,13.52
2022-09-13T18:59:07.702Z,13.23
2022-09-13T19:01:38.475Z,13.15
2022-09-13T19:04:08.646Z,14.30
2022-09-13T19:06:39.206Z,13.18
2022-09-13T19:09:08.745Z,12.32
2022-09-13T19:11:49.113Z,13.50
2022-09-13T19:14:19.270Z,13.18
2022-09-13T19:16:47.246Z,14.02
2022-09-13T19:19:15.859Z,14.07
2022-09-13T19:21:44.925Z,13.05
2022-09-13T19:24:18.424Z,12.77
2022-09-13T19:26:52.073Z,12.23
2022-09-13T19:29:22.090Z,12.38
2022-09-13T19:31:52.686Z,12.20
2022-09-13T19:34:22.836Z,12.20
2022-09-13T19:36:57.635Z,12.25
2022-09-13T19:39:30.082Z,11.48
2022-09-13T19:42:01.457Z,12.35
2022-09-13T19:44:29.989Z,12.85
2022-09-13T19:49:50.242Z,10.60
2022-09-13T19:52:18.679Z,12.15
2022-09-13T19:54:46.560Z,12.40
2022-09-13T19:57:16.484Z,12.48
2022-09-13T19:59:45.200Z,12.10
2022-09-13T20:02:15.043Z,12.05
2022-09-13T20:04:43.592Z,13.40
2022-09-13T20:07:13.534Z,12.80
2022-09-13T20:09:42.478Z,12.70
2022-09-13T20:12:12.780Z,11.20
2022-09-13T20:14:43.133Z,11.27
2022-09-13T20:17:11.574Z,11.02
2022-09-13T20:19:42.831Z,12.15
2022-09-13T20:22:15.601Z,11.88
2022-09-13T20:24:47.122Z,10.60
2022-09-13T20:27:15.941Z,11.45
2022-09-13T20:29:51.746Z,11.30
2022-09-13T20:32:20.833Z,10.80
2022-09-13T20:34:50.105Z,11.35
2022-09-13T20:37:18.667Z,11.38
2022-09-13T20:39:49.118Z,11.27
2022-09-13T20:42:17.811Z,10.88
2022-09-13T20:44:46.548Z,10.43
2022-09-13T20:47:18.267Z,10.75
2022-09-13T20:49:46.861Z,11.50
2022-09-13T20:52:14.871Z,11.32
2022-09-13T20:54:43.309Z,11.52
2022-09-13T20:57:14.461Z,10.82
2022-09-13T20:59:43.556Z,10.95
2022-09-13T21:16:45.887Z,11.00
2022-09-13T21:28:16.045Z,12.02
2022-09-13T21:30:44.068Z,11.65
2022-09-13T21:33:13.737Z,14.35
2022-09-13T21:35:41.795Z,11.35
2022-09-13T21:38:11.330Z,15.75
2022-09-13T21:40:39.294Z,10.73
2022-09-13T21:43:07.257Z,11.73
2022-09-13T21:45:35.056Z,13.57
2022-09-13T21:48:03.340Z,16.10
2022-09-13T21:50:33.158Z,31.35
2022-09-13T21:53:01.399Z,12.77
2022-09-13T21:55:31.321Z,22.25
2022-09-13T21:57:59.487Z,12.60
2022-09-13T22:00:27.422Z,12.73
2022-09-13T22:02:55.776Z,15.75
2022-09-13T22:05:23.670Z,12.75
2022-09-13T22:07:53.868Z,14.68
2022-09-13T22:10:21.854Z,13.95
2022-09-13T22:12:49.909Z,13.00
2022-09-13T22:15:18.543Z,12.90
2022-09-13T22:17:46.342Z,12.60
2022-09-13T22:20:15.135Z,12.93
